sensor_id;sensor_type;location;lat;lon;timestamp;temperature;humidity
2855;DHT22;1435;49.472;10.940;2023-04-15T00:02:41;9.30;99.90
2855;DHT22;1435;49.472;10.940;2023-04-15T00:07:43;9.10;99.90
2855;DHT22;1435;49.472;10.940;2023-04-15T00:12:46;9.00;99.90
2855;DHT22;1435;49.472;10.940;2023-04-15T00:17:50;9.00;99.90
2855;DHT22;1435;49.472;10.940;2023-04-15T00:22:52;9.00;99.90
2855;DHT22;1435;49.472;10.940;2023-04-15T00:27:54;8.90;99.90
2855;DHT22;1435;49.472;10.940;2023-04-15T00:32:57;8.70;99.90
2855;DHT22;1435;49.472;10.940;2023-04-15T00:37:59;8.70;99.90
2855;DHT22;1435;49.472;10.940;2023-04-15T00:43:01;8.80;99.90
2855;DHT22;1435;49.472;10.940;2023-04-15T00:48:05;8.90;99.90
2855;DHT22;1435;49.472;10.940;2023-04-15T00:53:06;8.70;99.90
2855;DHT22;1435;49.472;10.940;2023-04-15T00:58:08;8.80;99.90
2855;DHT22;1435;49.472;10.940;2023-04-15T01:03:11;8.80;99.90
2855;DHT22;1435;49.472;10.940;2023-04-15T01:08:13;8.60;99.90
2855;DHT22;1435;49.472;10.940;2023-04-15T01:13:15;8.60;99.90
2855;DHT22;1435;49.472;10.940;2023-04-15T01:18:18;8.50;99.90
2855;DHT22;1435;49.472;10.940;2023-04-15T01:23:21;8.60;99.90
2855;DHT22;1435;49.472;10.940;2023-04-15T01:28:24;8.70;99.90
2855;DHT22;1435;49.472;10.940;2023-04-15T01:33:26;8.50;99.90
2855;DHT22;1435;49.472;10.940;2023-04-15T01:38:29;8.40;99.90
2855;DHT22;1435;49.472;10.940;2023-04-15T01:43:33;8.60;99.90
2855;DHT22;1435;49.472;10.940;2023-04-15T01:48:35;8.60;99.90
2855;DHT22;1435;49.472;10.940;2023-04-15T01:53:37;8.50;99.90
2855;DHT22;1435;49.472;10.940;2023-04-15T01:58:40;8.50;99.90
2855;DHT22;1435;49.472;10.940;2023-04-15T02:03:42;8.30;99.90
2855;DHT22;1435;49.472;10.940;2023-04-15T02:08:43;8.40;99.90
2855;DHT22;1435;49.472;10.940;2023-04-15T02:13:46;8.50;99.90
2855;DHT22;1435;49.472;10.940;2023-04-15T02:18:48;8.40;99.90
2855;DHT22;1435;49.472;10.940;2023-04-15T02:23:51;8.40;99.90
2855;DHT22;1435;49.472;10.940;2023-04-15T02:28:55;8.30;99.90
2855;DHT22;1435;49.472;10.940;2023-04-15T02:33:57;8.40;99.90
2855;DHT22;1435;49.472;10.940;2023-04-15T02:38:59;8.50;99.90
2855;DHT22;1435;49.472;10.940;2023-04-15T02:44:02;8.40;99.90
2855;DHT22;1435;49.472;10.940;2023-04-15T02:49:06;8.50;99.90
2855;DHT22;1435;49.472;10.940;2023-04-15T02:54:08;8.50;99.90
2855;DHT22;1435;49.472;10.940;2023-04-15T02:59:11;8.50;99.90
2855;DHT22;1435;49.472;10.940;2023-04-15T03:04:13;8.50;99.90
2855;DHT22;1435;49.472;10.940;2023-04-15T03:09:15;8.50;99.90
2855;DHT22;1435;49.472;10.940;2023-04-15T03:14:18;8.30;99.90
2855;DHT22;1435;49.472;10.940;2023-04-15T03:19:20;8.30;99.90
2855;DHT22;1435;49.472;10.940;2023-04-15T03:24:22;8.30;99.90
2855;DHT22;1435;49.472;10.940;2023-04-15T03:29:25;8.30;99.90
2855;DHT22;1435;49.472;10.940;2023-04-15T03:34:27;8.10;99.90
2855;DHT22;1435;49.472;10.940;2023-04-15T03:39:28;8.30;99.90
2855;DHT22;1435;49.472;10.940;2023-04-15T03:44:32;8.10;99.90
2855;DHT22;1435;49.472;10.940;2023-04-15T03:49:34;8.10;99.90
2855;DHT22;1435;49.472;10.940;2023-04-15T03:54:36;8.30;99.90
2855;DHT22;1435;49.472;10.940;2023-04-15T03:59:39;8.20;99.90
2855;DHT22;1435;49.472;10.940;2023-04-15T04:04:41;8.10;99.90
2855;DHT22;1435;49.472;10.940;2023-04-15T04:09:43;8.10;99.90
2855;DHT22;1435;49.472;10.940;2023-04-15T04:14:46;8.00;99.90
2855;DHT22;1435;49.472;10.940;2023-04-15T04:19:48;8.10;99.90
2855;DHT22;1435;49.472;10.940;2023-04-15T04:24:49;8.00;99.90
2855;DHT22;1435;49.472;10.940;2023-04-15T04:29:53;8.00;99.90
2855;DHT22;1435;49.472;10.940;2023-04-15T04:34:54;7.90;99.90
2855;DHT22;1435;49.472;10.940;2023-04-15T04:39:56;8.00;99.90
2855;DHT22;1435;49.472;10.940;2023-04-15T04:44:59;8.10;99.90
2855;DHT22;1435;49.472;10.940;2023-04-15T04:50:01;8.20;99.90
2855;DHT22;1435;49.472;10.940;2023-04-15T04:55:03;8.10;99.90
2855;DHT22;1435;49.472;10.940;2023-04-15T05:00:07;8.10;99.90
2855;DHT22;1435;49.472;10.940;2023-04-15T05:05:09;8.00;99.90
2855;DHT22;1435;49.472;10.940;2023-04-15T05:10:12;8.00;99.90
2855;DHT22;1435;49.472;10.940;2023-04-15T05:15:18;8.10;99.90
2855;DHT22;1435;49.472;10.940;2023-04-15T05:20:20;7.90;99.90
2855;DHT22;1435;49.472;10.940;2023-04-15T05:25:21;8.10;99.90
2855;DHT22;1435;49.472;10.940;2023-04-15T05:30:24;8.30;99.90
2855;DHT22;1435;49.472;10.940;2023-04-15T05:35:26;8.40;99.90
2855;DHT22;1435;49.472;10.940;2023-04-15T05:40:28;8.40;99.90
2855;DHT22;1435;49.472;10.940;2023-04-15T05:45:32;8.30;99.90
2855;DHT22;1435;49.472;10.940;2023-04-15T05:50:33;8.20;99.90
2855;DHT22;1435;49.472;10.940;2023-04-15T05:55:35;8.30;99.90
2855;DHT22;1435;49.472;10.940;2023-04-15T06:00:38;8.30;99.90
2855;DHT22;1435;49.472;10.940;2023-04-15T06:05:40;8.40;99.90
2855;DHT22;1435;49.472;10.940;2023-04-15T06:10:42;8.50;99.90
2855;DHT22;1435;49.472;10.940;2023-04-15T06:15:45;8.50;99.90
2855;DHT22;1435;49.472;10.940;2023-04-15T06:20:47;8.60;99.90
2855;DHT22;1435;49.472;10.940;2023-04-15T06:25:49;8.70;99.90
2855;DHT22;1435;49.472;10.940;2023-04-15T06:30:52;8.60;99.90
2855;DHT22;1435;49.472;10.940;2023-04-15T06:35:55;8.70;99.90
2855;DHT22;1435;49.472;10.940;2023-04-15T06:40:56;8.90;99.90
2855;DHT22;1435;49.472;10.940;2023-04-15T06:45:59;8.80;99.90
2855;DHT22;1435;49.472;10.940;2023-04-15T06:51:01;9.00;99.90
2855;DHT22;1435;49.472;10.940;2023-04-15T06:56:04;9.00;99.90
2855;DHT22;1435;49.472;10.940;2023-04-15T07:01:07;9.00;99.90
2855;DHT22;1435;49.472;10.940;2023-04-15T07:06:08;9.00;99.90
2855;DHT22;1435;49.472;10.940;2023-04-15T07:11:10;9.00;99.90
2855;DHT22;1435;49.472;10.940;2023-04-15T07:16:13;9.10;99.90
2855;DHT22;1435;49.472;10.940;2023-04-15T07:21:15;9.20;99.90
2855;DHT22;1435;49.472;10.940;2023-04-15T07:26:17;9.10;99.90
2855;DHT22;1435;49.472;10.940;2023-04-15T07:31:20;9.00;99.90
2855;DHT22;1435;49.472;10.940;2023-04-15T07:36:22;9.10;99.90
2855;DHT22;1435;49.472;10.940;2023-04-15T07:41:23;9.20;99.90
2855;DHT22;1435;49.472;10.940;2023-04-15T07:46:27;9.10;99.90
2855;DHT22;1435;49.472;10.940;2023-04-15T07:51:29;9.20;99.90
2855;DHT22;1435;49.472;10.940;2023-04-15T07:56:31;9.30;99.90
2855;DHT22;1435;49.472;10.940;2023-04-15T08:01:35;9.40;99.90
2855;DHT22;1435;49.472;10.940;2023-04-15T08:06:37;9.40;99.90
2855;DHT22;1435;49.472;10.940;2023-04-15T08:11:39;9.50;99.90
2855;DHT22;1435;49.472;10.940;2023-04-15T08:16:42;9.50;99.90
2855;DHT22;1435;49.472;10.940;2023-04-15T08:21:44;9.60;99.90
2855;DHT22;1435;49.472;10.940;2023-04-15T08:26:46;9.60;99.90
2855;DHT22;1435;49.472;10.940;2023-04-15T08:31:49;9.60;99.90
2855;DHT22;1435;49.472;10.940;2023-04-15T08:36:51;9.70;99.90
2855;DHT22;1435;49.472;10.940;2023-04-15T08:42:01;9.80;99.90
2855;DHT22;1435;49.472;10.940;2023-04-15T08:47:07;9.80;99.90
2855;DHT22;1435;49.472;10.940;2023-04-15T08:52:09;9.90;99.90
2855;DHT22;1435;49.472;10.940;2023-04-15T08:57:11;10.00;99.90
2855;DHT22;1435;49.472;10.940;2023-04-15T09:02:15;10.10;99.90
2855;DHT22;1435;49.472;10.940;2023-04-15T09:07:17;10.00;99.90
2855;DHT22;1435;49.472;10.940;2023-04-15T09:12:18;10.00;99.90
2855;DHT22;1435;49.472;10.940;2023-04-15T09:21:47;9.80;99.90
2855;DHT22;1435;49.472;10.940;2023-04-15T09:26:51;9.80;99.90
2855;DHT22;1435;49.472;10.940;2023-04-15T09:31:54;9.80;99.90
2855;DHT22;1435;49.472;10.940;2023-04-15T09:36:58;9.60;99.90
2855;DHT22;1435;49.472;10.940;2023-04-15T11:04:54;8.10;99.90
2855;DHT22;1435;49.472;10.940;2023-04-15T11:09:57;8.30;99.90
2855;DHT22;1435;49.472;10.940;2023-04-15T11:14:59;8.60;99.90
2855;DHT22;1435;49.472;10.940;2023-04-15T11:20:02;8.80;99.90
2855;DHT22;1435;49.472;10.940;2023-04-15T11:25:05;9.00;99.90
2855;DHT22;1435;49.472;10.940;2023-04-15T11:30:17;9.10;99.90
2855;DHT22;1435;49.472;10.940;2023-04-15T11:35:21;9.30;99.90
2855;DHT22;1435;49.472;10.940;2023-04-15T11:40:23;9.20;99.90
2855;DHT22;1435;49.472;10.940;2023-04-15T11:45:26;9.30;99.90
2855;DHT22;1435;49.472;10.940;2023-04-15T11:50:29;9.30;99.90
2855;DHT22;1435;49.472;10.940;2023-04-15T11:55:40;9.50;99.90
2855;DHT22;1435;49.472;10.940;2023-04-15T12:00:46;9.50;99.90
2855;DHT22;1435;49.472;10.940;2023-04-15T12:06:10;9.60;99.90
2855;DHT22;1435;49.472;10.940;2023-04-15T12:11:12;9.50;99.90
2855;DHT22;1435;49.472;10.940;2023-04-15T12:16:16;9.60;99.90
2855;DHT22;1435;49.472;10.940;2023-04-15T12:21:20;9.60;99.90
2855;DHT22;1435;49.472;10.940;2023-04-15T12:26:26;9.50;99.90
2855;DHT22;1435;49.472;10.940;2023-04-15T12:31:28;9.60;99.90
2855;DHT22;1435;49.472;10.940;2023-04-15T12:36:32;9.70;99.90
2855;DHT22;1435;49.472;10.940;2023-04-15T12:41:36;9.70;99.90
2855;DHT22;1435;49.472;10.940;2023-04-15T12:46:38;9.80;99.90
2855;DHT22;1435;49.472;10.940;2023-04-15T12:51:42;9.70;99.90
2855;DHT22;1435;49.472;10.940;2023-04-15T12:56:44;9.80;99.90
2855;DHT22;1435;49.472;10.940;2023-04-15T13:01:47;9.80;99.90
2855;DHT22;1435;49.472;10.940;2023-04-15T13:06:50;9.80;99.90
2855;DHT22;1435;49.472;10.940;2023-04-15T13:11:52;9.70;99.90
2855;DHT22;1435;49.472;10.940;2023-04-15T13:16:54;9.70;99.90
2855;DHT22;1435;49.472;10.940;2023-04-15T13:21:57;9.80;99.90
2855;DHT22;1435;49.472;10.940;2023-04-15T13:26:59;9.90;99.90
2855;DHT22;1435;49.472;10.940;2023-04-15T13:32:01;9.90;99.90
2855;DHT22;1435;49.472;10.940;2023-04-15T13:37:07;9.90;99.90
2855;DHT22;1435;49.472;10.940;2023-04-15T13:42:09;10.00;99.90
2855;DHT22;1435;49.472;10.940;2023-04-15T13:47:10;10.00;99.90
2855;DHT22;1435;49.472;10.940;2023-04-15T13:52:15;10.00;99.90
2855;DHT22;1435;49.472;10.940;2023-04-15T13:57:17;9.80;99.90
2855;DHT22;1435;49.472;10.940;2023-04-15T14:02:20;9.80;99.90
2855;DHT22;1435;49.472;10.940;2023-04-15T14:07:23;9.80;99.90
2855;DHT22;1435;49.472;10.940;2023-04-15T14:12:25;9.80;99.90
2855;DHT22;1435;49.472;10.940;2023-04-15T14:17:27;9.70;99.90
2855;DHT22;1435;49.472;10.940;2023-04-15T14:22:30;9.70;99.90
2855;DHT22;1435;49.472;10.940;2023-04-15T14:27:32;9.70;99.90
2855;DHT22;1435;49.472;10.940;2023-04-15T14:32:34;9.80;99.90
2855;DHT22;1435;49.472;10.940;2023-04-15T14:37:37;9.90;99.90
2855;DHT22;1435;49.472;10.940;2023-04-15T14:42:39;9.90;99.90
2855;DHT22;1435;49.472;10.940;2023-04-15T14:47:41;9.90;99.90
2855;DHT22;1435;49.472;10.940;2023-04-15T15:10:41;9.50;99.90
2855;DHT22;1435;49.472;10.940;2023-04-15T15:15:42;9.50;99.90
2855;DHT22;1435;49.472;10.940;2023-04-15T15:20:44;9.60;99.90
2855;DHT22;1435;49.472;10.940;2023-04-15T15:25:47;9.70;99.90
2855;DHT22;1435;49.472;10.940;2023-04-15T15:30:49;9.70;99.90
2855;DHT22;1435;49.472;10.940;2023-04-15T15:35:51;9.80;99.90
2855;DHT22;1435;49.472;10.940;2023-04-15T15:40:54;9.80;99.90
2855;DHT22;1435;49.472;10.940;2023-04-15T15:45:56;9.90;99.90
2855;DHT22;1435;49.472;10.940;2023-04-15T15:50:57;10.00;99.90
2855;DHT22;1435;49.472;10.940;2023-04-15T15:56:00;10.00;99.90
2855;DHT22;1435;49.472;10.940;2023-04-15T16:01:03;10.00;99.90
2855;DHT22;1435;49.472;10.940;2023-04-15T16:06:05;10.00;99.90
2855;DHT22;1435;49.472;10.940;2023-04-15T16:11:08;10.00;99.90
2855;DHT22;1435;49.472;10.940;2023-04-15T16:16:10;10.00;99.90
2855;DHT22;1435;49.472;10.940;2023-04-15T16:21:12;10.00;99.90
2855;DHT22;1435;49.472;10.940;2023-04-15T16:26:15;9.90;99.90
2855;DHT22;1435;49.472;10.940;2023-04-15T16:31:17;9.90;99.90
2855;DHT22;1435;49.472;10.940;2023-04-15T16:36:18;9.80;99.90
2855;DHT22;1435;49.472;10.940;2023-04-15T16:41:21;9.80;99.90
2855;DHT22;1435;49.472;10.940;2023-04-15T16:46:24;9.80;99.90
2855;DHT22;1435;49.472;10.940;2023-04-15T16:51:27;9.90;99.90
2855;DHT22;1435;49.472;10.940;2023-04-15T16:56:31;9.80;99.90
2855;DHT22;1435;49.472;10.940;2023-04-15T17:01:33;9.90;99.90
2855;DHT22;1435;49.472;10.940;2023-04-15T17:06:34;9.80;99.90
2855;DHT22;1435;49.472;10.940;2023-04-15T17:11:37;9.80;99.90
2855;DHT22;1435;49.472;10.940;2023-04-15T17:16:40;9.70;99.90
2855;DHT22;1435;49.472;10.940;2023-04-15T17:21:42;9.70;99.90
2855;DHT22;1435;49.472;10.940;2023-04-15T17:26:46;9.70;99.90
2855;DHT22;1435;49.472;10.940;2023-04-15T17:31:48;9.80;99.90
2855;DHT22;1435;49.472;10.940;2023-04-15T17:36:49;9.80;99.90
2855;DHT22;1435;49.472;10.940;2023-04-15T17:41:56;9.80;99.90
2855;DHT22;1435;49.472;10.940;2023-04-15T17:46:58;9.60;99.90
2855;DHT22;1435;49.472;10.940;2023-04-15T17:52:03;9.70;99.90
2855;DHT22;1435;49.472;10.940;2023-04-15T17:57:06;9.70;99.90
2855;DHT22;1435;49.472;10.940;2023-04-15T18:02:07;9.70;99.90
2855;DHT22;1435;49.472;10.940;2023-04-15T18:07:09;9.60;99.90
2855;DHT22;1435;49.472;10.940;2023-04-15T18:12:13;9.70;99.90
2855;DHT22;1435;49.472;10.940;2023-04-15T18:17:15;9.70;99.90
2855;DHT22;1435;49.472;10.940;2023-04-15T18:22:17;9.70;99.90
2855;DHT22;1435;49.472;10.940;2023-04-15T18:27:20;9.70;99.90
2855;DHT22;1435;49.472;10.940;2023-04-15T18:32:22;9.70;99.90
2855;DHT22;1435;49.472;10.940;2023-04-15T18:37:25;9.60;99.90
2855;DHT22;1435;49.472;10.940;2023-04-15T18:42:30;9.50;99.90
2855;DHT22;1435;49.472;10.940;2023-04-15T18:47:31;9.40;99.90
2855;DHT22;1435;49.472;10.940;2023-04-15T18:52:33;9.30;99.90
2855;DHT22;1435;49.472;10.940;2023-04-15T18:57:36;9.40;99.90
2855;DHT22;1435;49.472;10.940;2023-04-15T19:02:42;9.50;99.90
2855;DHT22;1435;49.472;10.940;2023-04-15T19:07:44;9.40;99.90
2855;DHT22;1435;49.472;10.940;2023-04-15T19:12:47;9.30;99.90
2855;DHT22;1435;49.472;10.940;2023-04-15T19:17:49;9.40;99.90
2855;DHT22;1435;49.472;10.940;2023-04-15T19:22:52;9.20;99.90
2855;DHT22;1435;49.472;10.940;2023-04-15T19:27:56;9.20;99.90
2855;DHT22;1435;49.472;10.940;2023-04-15T19:32:57;9.20;99.90
2855;DHT22;1435;49.472;10.940;2023-04-15T19:38:00;9.10;99.90
2855;DHT22;1435;49.472;10.940;2023-04-15T19:43:03;9.00;99.90
2855;DHT22;1435;49.472;10.940;2023-04-15T19:48:05;9.20;99.90
2855;DHT22;1435;49.472;10.940;2023-04-15T19:53:07;9.30;99.90
2855;DHT22;1435;49.472;10.940;2023-04-15T19:58:10;9.20;99.90
2855;DHT22;1435;49.472;10.940;2023-04-15T20:03:12;9.20;99.90
2855;DHT22;1435;49.472;10.940;2023-04-15T20:08:14;9.30;99.90
2855;DHT22;1435;49.472;10.940;2023-04-15T20:13:17;9.30;99.90
2855;DHT22;1435;49.472;10.940;2023-04-15T20:18:19;9.20;99.90
2855;DHT22;1435;49.472;10.940;2023-04-15T20:23:20;9.20;99.90
2855;DHT22;1435;49.472;10.940;2023-04-15T20:28:23;9.10;99.90
2855;DHT22;1435;49.472;10.940;2023-04-15T20:33:26;9.20;99.90
2855;DHT22;1435;49.472;10.940;2023-04-15T20:38:28;9.20;99.90
2855;DHT22;1435;49.472;10.940;2023-04-15T20:43:31;9.20;99.90
2855;DHT22;1435;49.472;10.940;2023-04-15T20:48:33;9.00;99.90
2855;DHT22;1435;49.472;10.940;2023-04-15T20:53:35;9.10;99.90
2855;DHT22;1435;49.472;10.940;2023-04-15T20:58:38;9.10;99.90
2855;DHT22;1435;49.472;10.940;2023-04-15T21:03:40;9.20;99.90
2855;DHT22;1435;49.472;10.940;2023-04-15T21:08:42;9.20;99.90
2855;DHT22;1435;49.472;10.940;2023-04-15T21:13:45;9.20;99.90
2855;DHT22;1435;49.472;10.940;2023-04-15T21:18:47;9.20;99.90
2855;DHT22;1435;49.472;10.940;2023-04-15T21:23:48;9.20;99.90
2855;DHT22;1435;49.472;10.940;2023-04-15T21:28:51;9.20;99.90
2855;DHT22;1435;49.472;10.940;2023-04-15T21:33:53;9.10;99.90
2855;DHT22;1435;49.472;10.940;2023-04-15T21:38:55;9.20;99.90
2855;DHT22;1435;49.472;10.940;2023-04-15T21:43:58;9.30;99.90
2855;DHT22;1435;49.472;10.940;2023-04-15T21:49:00;9.10;99.90
2855;DHT22;1435;49.472;10.940;2023-04-15T21:54:01;9.20;99.90
2855;DHT22;1435;49.472;10.940;2023-04-15T21:59:04;9.20;99.90
2855;DHT22;1435;49.472;10.940;2023-04-15T22:04:06;9.20;99.90
2855;DHT22;1435;49.472;10.940;2023-04-15T22:09:10;9.20;99.90
2855;DHT22;1435;49.472;10.940;2023-04-15T22:14:13;9.00;99.90
2855;DHT22;1435;49.472;10.940;2023-04-15T22:19:15;9.00;99.90
2855;DHT22;1435;49.472;10.940;2023-04-15T22:24:17;9.00;99.90
2855;DHT22;1435;49.472;10.940;2023-04-15T22:29:20;9.10;99.90
2855;DHT22;1435;49.472;10.940;2023-04-15T22:34:22;9.10;99.90
2855;DHT22;1435;49.472;10.940;2023-04-15T22:39:24;9.10;99.90
2855;DHT22;1435;49.472;10.940;2023-04-15T22:44:27;9.10;99.90
2855;DHT22;1435;49.472;10.940;2023-04-15T22:49:29;9.10;99.90
2855;DHT22;1435;49.472;10.940;2023-04-15T22:54:31;9.10;99.90
2855;DHT22;1435;49.472;10.940;2023-04-15T22:59:34;9.10;99.90
2855;DHT22;1435;49.472;10.940;2023-04-15T23:04:36;9.20;99.90
2855;DHT22;1435;49.472;10.940;2023-04-15T23:09:37;9.30;99.90
2855;DHT22;1435;49.472;10.940;2023-04-15T23:14:40;9.30;99.90
2855;DHT22;1435;49.472;10.940;2023-04-15T23:19:42;9.40;99.90
2855;DHT22;1435;49.472;10.940;2023-04-15T23:24:44;9.40;99.90
2855;DHT22;1435;49.472;10.940;2023-04-15T23:29:47;9.40;99.90
2855;DHT22;1435;49.472;10.940;2023-04-15T23:34:48;9.40;99.90
2855;DHT22;1435;49.472;10.940;2023-04-15T23:39:51;9.30;99.90
2855;DHT22;1435;49.472;10.940;2023-04-15T23:44:56;9.30;99.90
2855;DHT22;1435;49.472;10.940;2023-04-15T23:49:58;9.40;99.90
2855;DHT22;1435;49.472;10.940;2023-04-15T23:54:59;9.40;99.90
